Lakeland, Florida
Current Conditions -  °F | °C
As of 12:50 PM on Monday 26 Jan 2015 (Local Time) from KLAL Reporting Station
Scattered Clouds Scattered Clouds  
Wind Chill: 64°   Ceiling: Unl
Heat Index: 64°   Visibility: 15mi
Dew Point: 45°   Wind: 17mph
Humidity: 49%   Direction: 290°WNW
Pressure: 29.89"   Gusts: 29mph
Location:  28.04°N, 81.95°W
Report Text: KLAL 261750Z 29015G25KT 15SM SCT045 18/07 A2989
Loading
Personal Weather Stations






























Interactive Weather Map New forecast layout! Learn more

10-Day Weather Forecast

Advertisements
Track Severe Weather on mobile